Edwin H. Gott — WDG7082 — position and weather

sailwx.info

Track history (hours):
 
Tides and Currents Weather Stations Pressure Air Temp Water Temp Dewpoint Dewpoint Depression Visibility Wind Speed Wind Dir Waves Ship Positions

Edwin H. Gott

Owner: Great Lakes Fleet, Inc., Homewood, IL. More information available from US FCC via Universal Licensing System and Coast Guard Vessel Documentation Center.

Last reported at 2018-Jul-21 01:05 UTC. Time now 2018-Jul-23 07:37 UTC.
Position N 45°48' W 085°49'.

Length 306 m; draft 8.8 m.

Type: Cargo ship. MMSI: 366971370.

Date/timePositionNaut miles runAvg speedWind from/ knotsBaromVisibWave heightAir tempDewpointWater temp
2018-Jul-21 01:05N 45°48' W 085°49'113.6
2018-Jul-21 01:00N 45°49' W 085°47'713.4
2018-Jul-21 00:30N 45°52' W 085°39'713.3
2018-Jul-20 23:59N 45°54' W 085°29'613.5
2018-Jul-20 23:30N 45°53' W 085°20'713.6
2018-Jul-20 23:01N 45°52' W 085°10'713.7
2018-Jul-20 22:31N 45°51' W 085°01'714.0
2018-Jul-20 22:00N 45°50' W 084°51'713.7
2018-Jul-20 21:30N 45°49' W 084°41'611.3
2018-Jul-20 21:00N 45°51' W 084°33'713.5
2018-Jul-20 20:30N 45°52' W 084°24'713.4
2018-Jul-20 20:00N 45°53' W 084°14'713.3
2018-Jul-20 19:30N 45°54' W 084°05'713.4
2018-Jul-20 19:00N 45°56' W 083°55'7 9.5
2018-Jul-20 18:14N 46°03' W 083°58'82 6.6
2018-Jul-20 05:45N 46°58' W 085°27'313.4
2018-Jul-20 05:30N 46°59' W 085°31'813.4
2018-Jul-20 04:56N 47°02' W 085°41'24012.8
2018-Jul-19 10:07N 47°01' W 091°34'313.4
2018-Jul-19 09:53N 47°00' W 091°39'1 3.1
2018-Jul-19 09:30N 47°01' W 091°40'0 0.2
2018-Jul-19 09:00N 47°01' W 091°40'0 0.0
2018-Jul-19 08:29N 47°01' W 091°40'0 0.0
2018-Jul-19 07:59N 47°01' W 091°40'0 0.0
2018-Jul-19 07:30N 47°01' W 091°40'0 0.0
2018-Jul-19 06:57N 47°01' W 091°40'0 0.0
2018-Jul-19 06:28N 47°01' W 091°40'0 0.0
2018-Jul-19 05:58N 47°01' W 091°40'0 0.0
2018-Jul-19 05:19N 47°01' W 091°40'0 0.0
2018-Jul-19 04:56N 47°01' W 091°40'0 0.0
2018-Jul-19 04:29N 47°01' W 091°40'0 0.0
2018-Jul-19 03:42N 47°01' W 091°40'0 0.0
2018-Jul-19 03:29N 47°01' W 091°40'0 0.0
2018-Jul-19 03:00N 47°01' W 091°40'0 0.0
2018-Jul-19 02:30N 47°01' W 091°40'0 0.0
2018-Jul-19 02:00N 47°01' W 091°40'0 0.0
2018-Jul-19 01:27N 47°01' W 091°40'0 0.0
2018-Jul-19 01:00N 47°01' W 091°40'0 0.0
2018-Jul-19 00:28N 47°01' W 091°40'0 0.0
2018-Jul-18 23:22N 47°01' W 091°40'0 0.0
2018-Jul-18 22:54N 47°01' W 091°40'0 0.0
2018-Jul-18 22:29N 47°01' W 091°40'0 0.0
2018-Jul-18 21:58N 47°01' W 091°40'0 0.0
2018-Jul-18 21:30N 47°01' W 091°40'0 0.0
2018-Jul-18 21:00N 47°01' W 091°40'0 0.0
2018-Jul-18 20:30N 47°01' W 091°40'0 0.0
2018-Jul-18 19:59N 47°01' W 091°40'0 0.0
2018-Jul-18 19:29N 47°01' W 091°40'0 0.4
2018-Jul-18 19:00N 47°01' W 091°40'1 2.0
2018-Jul-18 18:29N 46°60' W 091°40'3 6.9
2018-Jul-18 18:00N 46°57' W 091°38'1 2.2
2018-Jul-18 17:30N 46°56' W 091°37'0 0.2
2018-Jul-18 17:00N 46°56' W 091°37'0 0.2
2018-Jul-18 16:30N 46°56' W 091°37'0 0.2
2018-Jul-18 16:00N 46°56' W 091°37'1 0.3
2018-Jul-18 14:02N 46°56' W 091°38'0 0.3
2018-Jul-18 13:30N 46°56' W 091°38'0 0.3
2018-Jul-18 13:01N 46°56' W 091°39'0 0.3
2018-Jul-18 12:30N 46°56' W 091°39'0 0.3
2018-Jul-18 11:34N 46°56' W 091°39'0 0.2
2018-Jul-18 11:30N 46°56' W 091°39'4 4.5
2018-Jul-18 10:30N 46°60' W 091°37'5 7.9
2018-Jul-18 09:55N 47°02' W 091°31'4 8.0
2018-Jul-18 09:29N 47°02' W 091°26'4 8.1
2018-Jul-18 09:00N 47°03' W 091°20'4 8.2
2018-Jul-18 08:30N 47°04' W 091°14'4 8.3
2018-Jul-18 08:00N 47°05' W 091°08'4 8.2
2018-Jul-18 07:30N 47°06' W 091°03'5 8.3
2018-Jul-18 06:57N 47°07' W 090°56'294 9.2
2018-Jul-16 23:03N 45°53' W 084°02'214.6
2018-Jul-16 22:56N 45°52' W 084°05'614.6
2018-Jul-16 22:29N 45°51' W 084°14'715.3
2018-Jul-16 22:00N 45°50' W 084°24'815.1
2018-Jul-16 21:30N 45°51' W 084°35'714.1
2018-Jul-16 21:00N 45°49' W 084°45'815.3
2018-Jul-16 20:30N 45°49' W 084°56'714.8
2018-Jul-16 20:00N 45°50' W 085°06'611.0
2018-Jul-16 19:30N 45°45' W 085°10'714.5
2018-Jul-16 19:00N 45°39' W 085°16'714.7
2018-Jul-16 18:30N 45°33' W 085°22'814.6
2018-Jul-16 18:00N 45°27' W 085°29'714.7
2018-Jul-16 17:30N 45°21' W 085°35'714.7
2018-Jul-16 17:00N 45°15' W 085°41'714.5
2018-Jul-16 16:30N 45°10' W 085°47'714.6
2018-Jul-16 16:00N 45°04' W 085°53'714.3
2018-Jul-16 15:30N 44°59' W 086°01'15 0.4
2018-Jul-14 19:14N 44°59' W 086°23'1213.6
2018-Jul-14 18:20N 45°11' W 086°18'413.7
2018-Jul-14 18:00N 45°15' W 086°17'713.5
2018-Jul-14 17:30N 45°22' W 086°14'713.6
2018-Jul-14 17:00N 45°28' W 086°11'713.6
2018-Jul-14 16:30N 45°35' W 086°09'613.1
2018-Jul-14 16:00N 45°41' W 086°06'713.5
2018-Jul-14 15:30N 45°45' W 085°57'713.5
2018-Jul-14 15:00N 45°48' W 085°49'1313.2
2018-Jul-14 14:00N 45°54' W 085°32'813.2
2018-Jul-14 13:24N 45°53' W 085°20'513.3
2018-Jul-14 13:00N 45°52' W 085°13'713.4
2018-Jul-14 12:30N 45°51' W 085°03'713.5
2018-Jul-14 12:00N 45°50' W 084°54'713.4
2018-Jul-14 11:30N 45°49' W 084°44'611.7
2018-Jul-14 11:00N 45°51' W 084°36'1013.0
2018-Jul-14 10:14N 45°52' W 084°22'413.7
2018-Jul-14 09:57N 45°53' W 084°17'613.4
2018-Jul-14 09:28N 45°54' W 084°07'813.5
2018-Jul-14 08:53N 45°56' W 083°57'31510.5
2018-Jul-13 02:51N 47°03' W 091°24'613.8
2018-Jul-13 02:26N 47°02' W 091°33'512.6
2018-Jul-13 02:00N 47°00' W 091°40'1 0.8
2018-Jul-13 01:13N 47°01' W 091°40'0 0.0
2018-Jul-13 00:43N 47°01' W 091°40'0 0.0
2018-Jul-13 00:16N 47°01' W 091°40'0 0.0
2018-Jul-12 15:01N 47°01' W 091°40'0 0.7
2018-Jul-12 15:00N 47°01' W 091°40'0 0.7
2018-Jul-12 14:29N 47°00' W 091°40'32410.1
2018-Jul-11 06:32N 45°55' W 084°00'115.4
2018-Jul-11 06:29N 45°54' W 084°02'715.1
2018-Jul-11 06:00N 45°53' W 084°12'715.2
2018-Jul-11 05:30N 45°52' W 084°23'815.0
2018-Jul-11 05:00N 45°51' W 084°33'713.9
2018-Jul-11 04:30N 45°49' W 084°43'713.8
2018-Jul-11 04:01N 45°49' W 084°53'714.9
2018-Jul-11 03:31N 45°50' W 085°03'510.4
2018-Jul-11 03:00N 45°46' W 085°09'713.6
2018-Jul-11 02:30N 45°41' W 085°14'714.9
2018-Jul-11 02:00N 45°35' W 085°21'815.1
2018-Jul-11 01:30N 45°29' W 085°27'  
Track history (hours):
 
Tides and Currents Weather Stations Pressure Air Temp Water Temp Dewpoint Dewpoint Depression Visibility Wind Speed Wind Dir Waves Ship Positions

Edwin H. Gott

Owner: Great Lakes Fleet, Inc., Homewood, IL. More information available from US FCC via Universal Licensing System and Coast Guard Vessel Documentation Center.

Last reported at 2018-Jul-21 01:05 UTC. Time now 2018-Jul-23 07:37 UTC.
Position N 45°48' W 085°49'.

Length 306 m; draft 8.8 m.

Type: Cargo ship. MMSI: 366971370.

Date/timePositionNaut miles runAvg speedWind from/ knotsBaromVisibWave heightAir tempDewpointWater temp
2018-Jul-21 01:05N 45°48' W 085°49'113.6
2018-Jul-21 01:00N 45°49' W 085°47'713.4
2018-Jul-21 00:30N 45°52' W 085°39'713.3
2018-Jul-20 23:59N 45°54' W 085°29'613.5
2018-Jul-20 23:30N 45°53' W 085°20'713.6
2018-Jul-20 23:01N 45°52' W 085°10'713.7
2018-Jul-20 22:31N 45°51' W 085°01'714.0
2018-Jul-20 22:00N 45°50' W 084°51'713.7
2018-Jul-20 21:30N 45°49' W 084°41'611.3
2018-Jul-20 21:00N 45°51' W 084°33'713.5
2018-Jul-20 20:30N 45°52' W 084°24'713.4
2018-Jul-20 20:00N 45°53' W 084°14'713.3
2018-Jul-20 19:30N 45°54' W 084°05'713.4
2018-Jul-20 19:00N 45°56' W 083°55'7 9.5
2018-Jul-20 18:14N 46°03' W 083°58'82 6.6
2018-Jul-20 05:45N 46°58' W 085°27'313.4
2018-Jul-20 05:30N 46°59' W 085°31'813.4
2018-Jul-20 04:56N 47°02' W 085°41'24012.8
2018-Jul-19 10:07N 47°01' W 091°34'313.4
2018-Jul-19 09:53N 47°00' W 091°39'1 3.1
2018-Jul-19 09:30N 47°01' W 091°40'0 0.2
2018-Jul-19 09:00N 47°01' W 091°40'0 0.0
2018-Jul-19 08:29N 47°01' W 091°40'0 0.0
2018-Jul-19 07:59N 47°01' W 091°40'0 0.0
2018-Jul-19 07:30N 47°01' W 091°40'0 0.0
2018-Jul-19 06:57N 47°01' W 091°40'0 0.0
2018-Jul-19 06:28N 47°01' W 091°40'0 0.0
2018-Jul-19 05:58N 47°01' W 091°40'0 0.0
2018-Jul-19 05:19N 47°01' W 091°40'0 0.0
2018-Jul-19 04:56N 47°01' W 091°40'0 0.0
2018-Jul-19 04:29N 47°01' W 091°40'0 0.0
2018-Jul-19 03:42N 47°01' W 091°40'0 0.0
2018-Jul-19 03:29N 47°01' W 091°40'0 0.0
2018-Jul-19 03:00N 47°01' W 091°40'0 0.0
2018-Jul-19 02:30N 47°01' W 091°40'0 0.0
2018-Jul-19 02:00N 47°01' W 091°40'0 0.0
2018-Jul-19 01:27N 47°01' W 091°40'0 0.0
2018-Jul-19 01:00N 47°01' W 091°40'0 0.0
2018-Jul-19 00:28N 47°01' W 091°40'0 0.0
2018-Jul-18 23:22N 47°01' W 091°40'0 0.0
2018-Jul-18 22:54N 47°01' W 091°40'0 0.0
2018-Jul-18 22:29N 47°01' W 091°40'0 0.0
2018-Jul-18 21:58N 47°01' W 091°40'0 0.0
2018-Jul-18 21:30N 47°01' W 091°40'0 0.0
2018-Jul-18 21:00N 47°01' W 091°40'0 0.0
2018-Jul-18 20:30N 47°01' W 091°40'0 0.0
2018-Jul-18 19:59N 47°01' W 091°40'0 0.0
2018-Jul-18 19:29N 47°01' W 091°40'0 0.4
2018-Jul-18 19:00N 47°01' W 091°40'1 2.0
2018-Jul-18 18:29N 46°60' W 091°40'3 6.9
2018-Jul-18 18:00N 46°57' W 091°38'1 2.2
2018-Jul-18 17:30N 46°56' W 091°37'0 0.2
2018-Jul-18 17:00N 46°56' W 091°37'0 0.2
2018-Jul-18 16:30N 46°56' W 091°37'0 0.2
2018-Jul-18 16:00N 46°56' W 091°37'1 0.3
2018-Jul-18 14:02N 46°56' W 091°38'0 0.3
2018-Jul-18 13:30N 46°56' W 091°38'0 0.3
2018-Jul-18 13:01N 46°56' W 091°39'0 0.3
2018-Jul-18 12:30N 46°56' W 091°39'0 0.3
2018-Jul-18 11:34N 46°56' W 091°39'0 0.2
2018-Jul-18 11:30N 46°56' W 091°39'4 4.5
2018-Jul-18 10:30N 46°60' W 091°37'5 7.9
2018-Jul-18 09:55N 47°02' W 091°31'4 8.0
2018-Jul-18 09:29N 47°02' W 091°26'4 8.1
2018-Jul-18 09:00N 47°03' W 091°20'4 8.2
2018-Jul-18 08:30N 47°04' W 091°14'4 8.3
2018-Jul-18 08:00N 47°05' W 091°08'4 8.2
2018-Jul-18 07:30N 47°06' W 091°03'5 8.3
2018-Jul-18 06:57N 47°07' W 090°56'294 9.2
2018-Jul-16 23:03N 45°53' W 084°02'214.6
2018-Jul-16 22:56N 45°52' W 084°05'614.6
2018-Jul-16 22:29N 45°51' W 084°14'715.3
2018-Jul-16 22:00N 45°50' W 084°24'815.1
2018-Jul-16 21:30N 45°51' W 084°35'714.1
2018-Jul-16 21:00N 45°49' W 084°45'815.3
2018-Jul-16 20:30N 45°49' W 084°56'714.8
2018-Jul-16 20:00N 45°50' W 085°06'611.0
2018-Jul-16 19:30N 45°45' W 085°10'714.5
2018-Jul-16 19:00N 45°39' W 085°16'714.7
2018-Jul-16 18:30N 45°33' W 085°22'814.6
2018-Jul-16 18:00N 45°27' W 085°29'714.7
2018-Jul-16 17:30N 45°21' W 085°35'714.7
2018-Jul-16 17:00N 45°15' W 085°41'714.5
2018-Jul-16 16:30N 45°10' W 085°47'714.6
2018-Jul-16 16:00N 45°04' W 085°53'714.3
2018-Jul-16 15:30N 44°59' W 086°01'15 0.4
2018-Jul-14 19:14N 44°59' W 086°23'1213.6
2018-Jul-14 18:20N 45°11' W 086°18'413.7
2018-Jul-14 18:00N 45°15' W 086°17'713.5
2018-Jul-14 17:30N 45°22' W 086°14'713.6
2018-Jul-14 17:00N 45°28' W 086°11'713.6
2018-Jul-14 16:30N 45°35' W 086°09'613.1
2018-Jul-14 16:00N 45°41' W 086°06'713.5
2018-Jul-14 15:30N 45°45' W 085°57'713.5
2018-Jul-14 15:00N 45°48' W 085°49'1313.2
2018-Jul-14 14:00N 45°54' W 085°32'813.2
2018-Jul-14 13:24N 45°53' W 085°20'513.3
2018-Jul-14 13:00N 45°52' W 085°13'713.4
2018-Jul-14 12:30N 45°51' W 085°03'713.5
2018-Jul-14 12:00N 45°50' W 084°54'713.4
2018-Jul-14 11:30N 45°49' W 084°44'611.7
2018-Jul-14 11:00N 45°51' W 084°36'1013.0
2018-Jul-14 10:14N 45°52' W 084°22'413.7
2018-Jul-14 09:57N 45°53' W 084°17'613.4
2018-Jul-14 09:28N 45°54' W 084°07'813.5
2018-Jul-14 08:53N 45°56' W 083°57'31510.5
2018-Jul-13 02:51N 47°03' W 091°24'613.8
2018-Jul-13 02:26N 47°02' W 091°33'512.6
2018-Jul-13 02:00N 47°00' W 091°40'1 0.8
2018-Jul-13 01:13N 47°01' W 091°40'0 0.0
2018-Jul-13 00:43N 47°01' W 091°40'0 0.0
2018-Jul-13 00:16N 47°01' W 091°40'0 0.0
2018-Jul-12 15:01N 47°01' W 091°40'0 0.7
2018-Jul-12 15:00N 47°01' W 091°40'0 0.7
2018-Jul-12 14:29N 47°00' W 091°40'32410.1
2018-Jul-11 06:32N 45°55' W 084°00'115.4
2018-Jul-11 06:29N 45°54' W 084°02'715.1
2018-Jul-11 06:00N 45°53' W 084°12'715.2
2018-Jul-11 05:30N 45°52' W 084°23'815.0
2018-Jul-11 05:00N 45°51' W 084°33'713.9
2018-Jul-11 04:30N 45°49' W 084°43'713.8
2018-Jul-11 04:01N 45°49' W 084°53'714.9
2018-Jul-11 03:31N 45°50' W 085°03'510.4
2018-Jul-11 03:00N 45°46' W 085°09'713.6
2018-Jul-11 02:30N 45°41' W 085°14'714.9
2018-Jul-11 02:00N 45°35' W 085°21'815.1
2018-Jul-11 01:30N 45°29' W 085°27'  

Dump ship's entire track history